Time;durP1;ratioP1;P1;durP2;ratioP2;P2;SDS_P1;SDS_P2;PMS_P1;PMS_P2;Temp;Humidity;BMP_temperature;BMP_pressure;BME280_temperature;BME280_humidity;BME280_pressure;Samples;Min_cycle;Max_cycle;Signal;HPM_P1;HPM_P2
2021/03/06 00:00:31;;;;;;;4.80;2.60;;;;;;;2.73;83.36;99403.38;5011141;28;20295;-77
2021/03/06 00:02:57;;;;;;;7.07;3.20;;;;;;;2.61;83.59;99406.97;5010568;28;20217;-77
2021/03/06 00:05:26;;;;;;;5.43;2.83;;;;;;;2.71;82.32;99412.38;5005253;28;20214;-77
2021/03/06 00:07:52;;;;;;;5.50;2.43;;;;;;;2.77;82.15;99409.25;5007568;28;20298;-77
2021/03/06 00:10:19;;;;;;;4.90;2.47;;;;;;;2.94;79.69;99412.25;5002952;28;20231;-77
2021/03/06 00:12:49;;;;;;;5.37;2.30;;;;;;;2.83;81.41;99414.03;5008020;28;20204;-76
2021/03/06 00:15:18;;;;;;;4.03;2.50;;;;;;;2.59;80.81;99414.13;5007214;28;20207;-77
2021/03/06 00:17:45;;;;;;;5.23;2.77;;;;;;;2.68;82.23;99408.16;5010676;28;20195;-78
2021/03/06 00:20:12;;;;;;;3.73;2.37;;;;;;;2.77;85.72;99404.84;5012633;28;20225;-77
2021/03/06 00:22:38;;;;;;;4.07;2.47;;;;;;;2.56;81.57;99418.81;5008901;28;20242;-77
2021/03/06 00:25:06;;;;;;;4.03;2.47;;;;;;;2.62;82.69;99420.97;5001940;28;20214;-77
2021/03/06 00:27:33;;;;;;;6.03;2.40;;;;;;;2.44;80.20;99422.38;5010820;28;20256;-77
2021/03/06 00:30:01;;;;;;;3.57;2.13;;;;;;;2.78;77.78;99424.09;5012425;28;20234;-76
2021/03/06 00:32:28;;;;;;;4.13;2.57;;;;;;;2.59;77.42;99421.22;5027596;23;20256;-73
2021/03/06 00:34:54;;;;;;;4.13;2.00;;;;;;;2.46;77.60;99417.81;5051611;28;20217;-75
2021/03/06 00:37:21;;;;;;;5.13;2.47;;;;;;;2.55;76.34;99417.97;5046374;28;20201;-73
2021/03/06 00:39:48;;;;;;;4.27;2.33;;;;;;;2.44;75.15;99417.94;5054201;28;20213;-74
2021/03/06 00:42:15;;;;;;;3.43;2.20;;;;;;;2.89;76.19;99410.97;5052170;28;20885;-74
2021/03/06 00:44:42;;;;;;;3.33;2.10;;;;;;;2.54;75.33;99420.72;5051249;28;20224;-74
2021/03/06 00:47:09;;;;;;;4.50;2.30;;;;;;;2.66;75.94;99417.16;5056419;28;20205;-74
2021/03/06 00:49:36;;;;;;;3.83;2.00;;;;;;;2.42;77.17;99416.38;5056254;28;20685;-73
2021/03/06 00:52:03;;;;;;;5.77;2.43;;;;;;;2.43;78.29;99415.41;5048508;28;20236;-74
2021/03/06 00:54:30;;;;;;;3.50;2.20;;;;;;;2.34;77.88;99416.13;5050583;28;20675;-74
2021/03/06 00:56:57;;;;;;;3.43;2.33;;;;;;;2.21;78.66;99413.56;5048718;28;20209;-73
2021/03/06 00:59:24;;;;;;;3.93;2.07;;;;;;;2.40;78.27;99408.59;5052624;28;20202;-72
2021/03/06 01:01:51;;;;;;;3.90;2.23;;;;;;;2.22;78.12;99411.75;5053409;28;20204;-73
2021/03/06 01:04:18;;;;;;;6.83;2.30;;;;;;;2.12;80.40;99411.63;5051072;28;21017;-76
2021/03/06 01:06:45;;;;;;;3.63;2.10;;;;;;;2.12;80.17;99408.13;5043208;28;20212;-74
2021/03/06 01:09:12;;;;;;;3.20;2.37;;;;;;;2.09;80.70;99406.56;5054217;28;20213;-72
2021/03/06 01:11:39;;;;;;;7.20;2.43;;;;;;;1.84;82.50;99404.06;5047946;28;20715;-75
2021/03/06 01:14:06;;;;;;;3.80;2.37;;;;;;;1.98;81.63;99403.09;5053512;28;20304;-74
2021/03/06 01:16:33;;;;;;;4.63;2.67;;;;;;;1.95;79.89;99398.03;5053468;28;20561;-73
2021/03/06 01:18:59;;;;;;;3.47;2.00;;;;;;;1.95;81.25;99401.50;5045269;28;20577;-75
2021/03/06 01:21:27;;;;;;;4.23;2.47;;;;;;;1.96;81.03;99397.91;5053071;28;20204;-74
2021/03/06 01:23:54;;;;;;;4.53;2.53;;;;;;;1.95;81.80;99398.88;5056926;28;20730;-73
2021/03/06 01:26:21;;;;;;;4.80;2.50;;;;;;;1.87;81.19;99401.22;5046329;28;20251;-73
2021/03/06 01:28:47;;;;;;;3.63;2.53;;;;;;;1.78;81.73;99391.38;5052639;28;20210;-75
2021/03/06 01:31:14;;;;;;;5.43;2.70;;;;;;;1.99;80.10;99396.84;5052251;28;20225;-75
2021/03/06 01:33:41;;;;;;;6.17;2.70;;;;;;;2.00;81.12;99404.66;5044810;28;20226;-74
2021/03/06 01:36:08;;;;;;;3.27;2.30;;;;;;;2.12;81.60;99392.34;5049519;28;20206;-74
2021/03/06 01:38:36;;;;;;;4.33;2.40;;;;;;;2.00;78.71;99394.13;5049520;28;20198;-74
2021/03/06 01:41:03;;;;;;;3.33;2.23;;;;;;;2.09;78.21;99398.66;5048364;28;20313;-75
2021/03/06 01:43:29;;;;;;;3.53;2.20;;;;;;;1.90;80.71;99393.13;5051512;28;20229;-74
2021/03/06 01:45:56;;;;;;;9.97;2.73;;;;;;;1.77;80.89;99405.47;5051979;28;20212;-76
2021/03/06 01:48:23;;;;;;;6.30;2.87;;;;;;;1.77;81.71;99400.22;5042108;28;20194;-75
2021/03/06 01:50:52;;;;;;;3.83;2.40;;;;;;;1.71;82.54;99392.78;5039844;28;20221;-75
2021/03/06 01:53:19;;;;;;;6.47;3.00;;;;;;;1.65;82.76;99398.50;5043038;28;20217;-74
2021/03/06 01:55:48;;;;;;;4.97;2.87;;;;;;;1.72;83.94;99396.22;5043540;28;20251;-74
2021/03/06 01:58:16;;;;;;;4.50;2.17;;;;;;;1.54;85.42;99394.97;5046807;28;20674;-73
2021/03/06 02:00:43;;;;;;;4.57;2.80;;;;;;;1.51;84.93;99388.13;5055982;28;20719;-74
2021/03/06 02:03:10;;;;;;;7.40;2.50;;;;;;;1.48;85.14;99383.06;5055624;28;20222;-72
2021/03/06 02:05:37;;;;;;;3.93;2.27;;;;;;;1.47;85.33;99384.03;5051684;28;20743;-76
2021/03/06 02:08:05;;;;;;;4.90;2.33;;;;;;;1.42;86.57;99391.41;5052125;28;20554;-74
2021/03/06 02:10:34;;;;;;;3.93;2.30;;;;;;;1.47;87.21;99384.03;5047615;28;20570;-75
2021/03/06 02:13:28;;;;;;;4.87;2.03;;;;;;;1.39;87.83;99383.75;5055654;28;20232;-75
2021/03/06 02:16:06;;;;;;;4.60;2.67;;;;;;;1.31;88.71;99386.09;5056302;28;20198;-75
2021/03/06 02:18:38;;;;;;;5.20;2.47;;;;;;;1.25;89.09;99389.16;5056689;28;20201;-75
2021/03/06 02:21:11;;;;;;;8.30;2.77;;;;;;;1.22;89.39;99381.47;5048928;28;20200;-74
2021/03/06 02:24:13;;;;;;;4.73;2.60;;;;;;;1.20;90.01;99388.66;5058046;28;20218;-75
2021/03/06 02:26:57;;;;;;;6.20;2.57;;;;;;;1.03;93.16;99381.09;5044628;28;20284;-75
2021/03/06 02:29:45;;;;;;;4.57;2.80;;;;;;;1.00;95.09;99376.09;5069307;28;20219;-74
2021/03/06 02:32:19;;;;;;;4.73;2.30;;;;;;;1.08;93.27;99381.63;5052335;28;20206;-74
2021/03/06 02:34:50;;;;;;;5.43;3.00;;;;;;;1.09;92.60;99380.69;5049599;28;20275;-74
2021/03/06 02:37:21;;;;;;;6.97;3.27;;;;;;;1.01;93.66;99380.38;5052805;28;20246;-73
2021/03/06 02:39:51;;;;;;;5.90;2.70;;;;;;;1.00;93.17;99375.22;5052535;28;20806;-74
2021/03/06 02:42:21;;;;;;;7.63;2.83;;;;;;;0.89;95.57;99380.41;5054619;28;20202;-74
2021/03/06 02:44:50;;;;;;;5.57;3.10;;;;;;;0.75;98.51;99385.78;5052539;28;20240;-74
2021/03/06 02:47:17;;;;;;;3.77;2.60;;;;;;;0.67;100.00;99383.69;5040189;28;20721;-73
2021/03/06 02:49:51;;;;;;;5.37;2.83;;;;;;;0.73;100.00;99375.38;5048433;28;20216;-74
2021/03/06 02:52:18;;;;;;;5.60;2.80;;;;;;;0.74;98.72;99382.31;5057652;28;20753;-76
2021/03/06 02:54:46;;;;;;;5.10;3.00;;;;;;;0.85;97.41;99377.16;5052496;28;20234;-74
2021/03/06 02:57:24;;;;;;;5.50;2.77;;;;;;;0.94;97.10;99376.53;5060019;28;20348;-73
2021/03/06 03:00:04;;;;;;;3.30;2.37;;;;;;;0.88;98.70;99378.72;5059133;28;20300;-75
2021/03/06 03:02:41;;;;;;;3.67;2.40;;;;;;;0.70;98.41;99378.22;5056473;28;20194;-73
2021/03/06 03:05:11;;;;;;;4.47;3.17;;;;;;;0.70;97.08;99378.22;5053277;28;20560;-74
2021/03/06 03:07:49;;;;;;;5.07;2.83;;;;;;;0.72;96.05;99370.25;5047100;28;20247;-75
2021/03/06 03:10:18;;;;;;;5.03;2.70;;;;;;;0.71;98.00;99371.19;5047386;28;20190;-75
2021/03/06 03:12:49;;;;;;;4.47;2.87;;;;;;;0.60;99.66;99368.44;5055281;28;20225;-75
2021/03/06 03:15:19;;;;;;;5.70;3.07;;;;;;;0.77;97.75;99376.84;5046893;28;20201;-74
2021/03/06 03:17:48;;;;;;;6.03;3.20;;;;;;;0.59;97.11;99374.66;5047001;28;20209;-74
2021/03/06 03:20:26;;;;;;;4.47;3.20;;;;;;;0.65;97.38;99380.31;5046770;28;20202;-75
2021/03/06 03:22:58;;;;;;;5.57;3.53;;;;;;;0.71;96.16;99374.63;5047402;28;20697;-74
2021/03/06 03:25:26;;;;;;;4.03;2.23;;;;;;;0.59;98.96;99369.41;5049254;28;20220;-74
2021/03/06 03:27:52;;;;;;;5.20;3.00;;;;;;;0.65;97.07;99371.59;5054747;28;20205;-75
2021/03/06 03:30:22;;;;;;;4.17;2.97;;;;;;;0.55;98.13;99368.78;5047845;28;20202;-75
2021/03/06 03:32:51;;;;;;;4.23;2.53;;;;;;;0.56;98.12;99374.88;5055663;28;20246;-73
2021/03/06 03:35:20;;;;;;;4.30;3.07;;;;;;;0.50;97.91;99377.91;5044390;28;20194;-74
2021/03/06 03:37:48;;;;;;;6.10;3.00;;;;;;;0.23;100.00;99371.91;5049961;28;20644;-74
2021/03/06 03:40:18;;;;;;;5.77;3.23;;;;;;;0.38;100.00;99366.47;5042720;28;20264;-74
2021/03/06 03:42:46;;;;;;;5.67;3.07;;;;;;;0.50;100.00;99372.66;5053708;28;20229;-74
2021/03/06 03:45:14;;;;;;;4.77;2.77;;;;;;;0.52;100.00;99378.66;5043079;28;20249;-74
2021/03/06 03:47:43;;;;;;;5.00;2.67;;;;;;;0.27;100.00;99382.09;5049873;28;20276;-75
2021/03/06 03:50:11;;;;;;;5.23;3.20;;;;;;;0.17;100.00;99381.03;5053539;28;20213;-74
2021/03/06 03:52:39;;;;;;;4.53;2.93;;;;;;;0.15;100.00;99387.31;5051622;28;20237;-74
2021/03/06 03:55:07;;;;;;;4.93;2.47;;;;;;;0.20;100.00;99378.22;5052432;28;20213;-73
2021/03/06 03:57:34;;;;;;;5.00;3.07;;;;;;;0.07;100.00;99376.50;5053830;28;20800;-75
2021/03/06 04:00:06;;;;;;;5.30;2.70;;;;;;;0.18;100.00;99381.88;5054138;28;20207;-74
2021/03/06 04:02:33;;;;;;;3.97;2.63;;;;;;;0.29;100.00;99384.63;5045215;28;20200;-75
2021/03/06 04:05:01;;;;;;;4.40;2.90;;;;;;;0.09;100.00;99391.22;5046384;28;20674;-74
2021/03/06 04:07:28;;;;;;;4.53;2.73;;;;;;;0.01;100.00;99396.13;5045100;28;20202;-74
2021/03/06 04:09:54;;;;;;;4.90;2.80;;;;;;;-0.09;100.00;99396.84;5045087;28;20202;-74
2021/03/06 04:12:21;;;;;;;5.13;2.90;;;;;;;0.09;100.00;99400.84;5043998;28;20222;-75
2021/03/06 04:14:48;;;;;;;5.47;3.23;;;;;;;0.03;100.00;99396.88;5052447;28;20255;-76
2021/03/06 04:17:15;;;;;;;5.00;2.80;;;;;;;-0.07;100.00;99406.31;5050896;28;20202;-74
2021/03/06 04:19:42;;;;;;;4.73;2.67;;;;;;;-0.16;100.00;99408.66;5065694;28;20212;-74
2021/03/06 04:22:09;;;;;;;4.80;2.77;;;;;;;-0.07;100.00;99415.94;5068066;28;20206;-75
2021/03/06 04:24:36;;;;;;;4.80;3.20;;;;;;;-0.03;100.00;99407.78;5057517;28;20236;-75
2021/03/06 04:27:03;;;;;;;5.13;2.70;;;;;;;0.09;100.00;99403.47;5059830;28;20225;-75
2021/03/06 04:29:29;;;;;;;5.47;3.07;;;;;;;0.09;100.00;99412.22;5055334;28;20218;-74
2021/03/06 04:31:56;;;;;;;5.13;2.90;;;;;;;-0.17;100.00;99405.22;5053886;28;20236;-73
2021/03/06 04:34:23;;;;;;;4.87;2.80;;;;;;;0.00;100.00;99406.75;5053306;28;20221;-75
2021/03/06 04:36:50;;;;;;;5.43;2.90;;;;;;;-0.06;100.00;99407.97;5048167;28;20289;-74
2021/03/06 04:39:18;;;;;;;5.70;3.00;;;;;;;-0.07;100.00;99408.06;5050177;28;20201;-74
2021/03/06 04:41:45;;;;;;;4.27;2.60;;;;;;;-0.12;100.00;99407.53;5054684;28;20218;-75
2021/03/06 04:44:13;;;;;;;4.90;2.83;;;;;;;-0.20;100.00;99412.47;5052598;28;20720;-73
2021/03/06 04:46:40;;;;;;;5.40;3.20;;;;;;;-0.26;100.00;99404.97;5049698;28;20567;-74
2021/03/06 04:49:07;;;;;;;4.27;2.60;;;;;;;-0.18;100.00;99413.19;5044180;28;20202;-74
2021/03/06 04:51:34;;;;;;;3.70;2.63;;;;;;;-0.20;100.00;99415.91;5049322;28;20344;-73
2021/03/06 04:54:01;;;;;;;6.33;2.93;;;;;;;-0.28;100.00;99412.94;5047927;28;20229;-73
2021/03/06 04:56:29;;;;;;;4.70;3.07;;;;;;;-0.15;100.00;99410.38;5053127;28;20667;-73
2021/03/06 04:58:55;;;;;;;3.93;2.33;;;;;;;-0.21;100.00;99411.59;5052172;28;20204;-75
2021/03/06 05:01:22;;;;;;;7.97;2.93;;;;;;;-0.41;100.00;99417.28;5043220;28;20206;-73
2021/03/06 05:03:49;;;;;;;5.53;3.07;;;;;;;-0.30;100.00;99414.00;5041868;28;20280;-75
2021/03/06 05:06:16;;;;;;;6.20;3.03;;;;;;;-0.23;100.00;99420.50;5044158;28;20844;-75
2021/03/06 05:08:43;;;;;;;4.60;3.10;;;;;;;-0.26;100.00;99408.44;5058284;28;20201;-74
2021/03/06 05:11:10;;;;;;;6.10;2.57;;;;;;;-0.25;100.00;99410.09;5044164;28;20256;-74
2021/03/06 05:13:38;;;;;;;5.13;2.90;;;;;;;-0.28;100.00;99414.72;5050912;28;20218;-74
2021/03/06 05:16:06;;;;;;;7.47;3.20;;;;;;;-0.34;100.00;99407.25;5052825;28;20213;-73
2021/03/06 05:18:33;;;;;;;5.03;2.77;;;;;;;-0.20;100.00;99404.59;5045273;28;20280;-74
2021/03/06 05:21:00;;;;;;;6.20;3.70;;;;;;;-0.31;100.00;99414.91;5044784;28;20197;-74
2021/03/06 05:23:27;;;;;;;6.27;2.90;;;;;;;-0.27;100.00;99417.25;5042530;28;20279;-73
2021/03/06 05:25:54;;;;;;;4.73;3.17;;;;;;;-0.35;100.00;99423.94;5041335;28;20205;-74
2021/03/06 05:28:22;;;;;;;6.20;2.83;;;;;;;-0.24;100.00;99422.28;5051170;28;20233;-74
2021/03/06 05:30:50;;;;;;;7.90;2.80;;;;;;;-0.30;100.00;99422.69;5047468;28;20222;-75
2021/03/06 05:33:17;;;;;;;6.23;2.97;;;;;;;-0.19;99.46;99420.19;5044825;28;20234;-73
2021/03/06 05:35:45;;;;;;;4.53;3.20;;;;;;;0.01;96.93;99411.03;5048654;28;20198;-74
2021/03/06 05:38:12;;;;;;;5.93;3.60;;;;;;;-0.17;96.62;99414.84;5043534;28;20204;-74
2021/03/06 05:40:41;;;;;;;7.53;3.50;;;;;;;-0.22;98.46;99417.78;5052066;28;20198;-74
2021/03/06 05:43:09;;;;;;;5.57;2.90;;;;;;;-0.26;99.20;99423.31;5055445;28;20236;-73
2021/03/06 05:45:36;;;;;;;6.37;3.20;;;;;;;-0.24;100.00;99416.22;5047886;28;20194;-74
2021/03/06 05:48:04;;;;;;;6.47;3.40;;;;;;;-0.13;100.00;99418.97;5051634;28;20233;-74
2021/03/06 05:50:31;;;;;;;7.13;2.80;;;;;;;-0.20;100.00;99415.06;5055748;28;20202;-75
2021/03/06 05:52:59;;;;;;;5.33;3.30;;;;;;;-0.26;99.34;99410.19;5056162;28;20225;-74
2021/03/06 05:55:27;;;;;;;5.57;3.40;;;;;;;-0.31;100.00;99415.75;5048033;28;20582;-76
2021/03/06 05:57:55;;;;;;;6.40;3.00;;;;;;;-0.35;99.83;99406.41;5055978;28;20212;-73
2021/03/06 06:00:22;;;;;;;7.50;3.20;;;;;;;-0.24;99.54;99409.16;5049060;28;20270;-74
2021/03/06 06:02:49;;;;;;;4.53;3.20;;;;;;;-0.26;100.00;99413.69;5051137;28;20270;-74
2021/03/06 06:05:18;;;;;;;5.27;3.17;;;;;;;-0.18;99.90;99407.94;5047980;28;20198;-75
2021/03/06 06:07:45;;;;;;;7.13;3.63;;;;;;;-0.35;100.00;99405.59;5047070;28;20210;-74
2021/03/06 06:10:13;;;;;;;5.13;2.90;;;;;;;-0.29;100.00;99407.81;5051545;28;20210;-76
2021/03/06 06:12:42;;;;;;;6.23;3.07;;;;;;;-0.31;100.00;99412.28;5055142;28;20214;-75
2021/03/06 06:15:11;;;;;;;5.33;2.57;;;;;;;-0.14;100.00;99415.50;5055088;28;20284;-75
2021/03/06 06:17:37;;;;;;;4.93;3.33;;;;;;;-0.22;100.00;99412.56;5044297;28;20643;-75
2021/03/06 06:20:05;;;;;;;3.80;3.00;;;;;;;-0.03;97.71;99418.28;5050979;28;20735;-74
2021/03/06 06:22:33;;;;;;;4.93;2.97;;;;;;;0.01;95.32;99417.13;5059378;28;20550;-75
2021/03/06 06:25:00;;;;;;;4.87;2.67;;;;;;;0.06;95.92;99416.81;5061002;28;20198;-74
2021/03/06 06:27:28;;;;;;;5.23;2.93;;;;;;;0.14;93.89;99415.38;5059520;28;20202;-74
2021/03/06 06:29:57;;;;;;;5.20;3.50;;;;;;;0.11;92.81;99423.44;5054976;28;20296;-74
2021/03/06 06:32:25;;;;;;;6.83;3.40;;;;;;;0.27;91.80;99420.66;5055258;28;20228;-75
2021/03/06 06:35:01;;;;;;;5.77;3.53;;;;;;;0.53;89.69;99424.97;5048551;28;20221;-75
2021/03/06 06:37:29;;;;;;;7.40;3.33;;;;;;;0.51;88.44;99424.25;5054047;28;20205;-74
2021/03/06 06:39:58;;;;;;;4.37;2.80;;;;;;;0.58;87.20;99436.88;5041236;28;20256;-75
2021/03/06 06:42:32;;;;;;;6.33;2.93;;;;;;;0.24;85.40;99433.97;5044946;28;20202;-73
2021/03/06 06:44:59;;;;;;;4.73;3.37;;;;;;;0.53;83.89;99433.72;5053263;28;20673;-73
2021/03/06 06:47:34;;;;;;;4.67;3.50;;;;;;;0.56;81.93;99443.16;5048167;28;20242;-76
2021/03/06 06:50:01;;;;;;;5.03;3.03;;;;;;;0.98;80.46;99440.22;5046455;28;20197;-73
2021/03/06 06:52:36;;;;;;;5.57;3.27;;;;;;;0.70;78.21;99451.78;5046958;28;20228;-75
2021/03/06 06:55:06;;;;;;;4.73;3.03;;;;;;;0.68;78.77;99445.81;5042453;28;20233;-75
2021/03/06 06:57:33;;;;;;;3.93;2.67;;;;;;;0.81;78.39;99441.38;5047594;28;20252;-74
2021/03/06 07:00:01;;;;;;;5.03;3.10;;;;;;;0.80;77.24;99442.31;5048454;28;20245;-76
2021/03/06 07:02:28;;;;;;;6.17;3.17;;;;;;;1.12;75.34;99448.81;5052253;28;20205;-72
2021/03/06 07:04:56;;;;;;;5.00;3.00;;;;;;;0.90;76.18;99442.53;5053979;28;20205;-75
2021/03/06 07:07:24;;;;;;;3.70;2.37;;;;;;;1.31;73.55;99454.47;5047164;28;20674;-73
2021/03/06 07:10:11;;;;;;;6.37;2.70;;;;;;;1.39;73.46;99453.94;5046069;28;20201;-72
2021/03/06 07:12:40;;;;;;;5.57;2.43;;;;;;;1.11;74.29;99455.03;5049906;28;20206;-71
2021/03/06 07:15:20;;;;;;;4.50;2.57;;;;;;;1.32;74.18;99463.19;5041508;28;20205;-73
2021/03/06 07:17:48;;;;;;;5.50;2.60;;;;;;;1.52;72.87;99465.22;5047759;28;20202;-73
2021/03/06 07:20:29;;;;;;;4.27;2.33;;;;;;;1.54;74.11;99466.81;5045682;28;20207;-73
2021/03/06 07:22:57;;;;;;;3.93;2.60;;;;;;;1.43;73.23;99468.53;5045565;28;20224;-72
2021/03/06 07:25:26;;;;;;;3.43;2.13;;;;;;;1.69;72.88;99473.59;5043749;28;20252;-71
2021/03/06 07:27:53;;;;;;;4.37;2.63;;;;;;;1.38;74.46;99471.47;5043996;28;20220;-75
2021/03/06 07:30:21;;;;;;;3.70;2.60;;;;;;;1.60;72.13;99473.44;5045332;28;20206;-73
2021/03/06 07:32:48;;;;;;;5.40;2.77;;;;;;;1.55;71.80;99486.94;5047261;28;20234;-73
2021/03/06 07:35:16;;;;;;;4.70;2.60;;;;;;;1.50;71.95;99491.69;5049703;28;20201;-73
2021/03/06 07:37:44;;;;;;;4.67;2.50;;;;;;;2.06;69.12;99490.22;5053757;28;20194;-75
2021/03/06 07:40:13;;;;;;;5.10;2.53;;;;;;;1.94;70.15;99497.22;5039857;28;20255;-76
2021/03/06 07:42:46;;;;;;;4.17;2.40;;;;;;;2.12;68.35;99493.25;5045050;28;20194;-75
2021/03/06 07:45:15;;;;;;;3.07;2.43;;;;;;;1.97;66.94;99504.03;5041471;28;20191;-74
2021/03/06 07:47:43;;;;;;;4.13;2.43;;;;;;;2.43;66.31;99497.94;5040966;28;20209;-74
2021/03/06 07:50:18;;;;;;;6.27;2.83;;;;;;;2.30;66.28;99502.41;5052810;28;20670;-76
2021/03/06 07:52:45;;;;;;;5.37;2.60;;;;;;;1.93;65.51;99508.69;5048330;28;20686;-73
2021/03/06 07:55:13;;;;;;;4.70;2.83;;;;;;;2.18;65.67;99502.50;5044314;28;20206;-72
2021/03/06 07:58:00;;;;;;;3.30;2.50;;;;;;;2.96;62.57;99507.91;5044921;28;20204;-73
2021/03/06 08:00:42;;;;;;;4.53;2.60;;;;;;;2.59;63.41;99505.56;5051923;28;20247;-74
2021/03/06 08:03:34;;;;;;;3.97;2.50;;;;;;;2.92;63.25;99509.13;5050990;28;20731;-76
2021/03/06 08:06:02;;;;;;;3.50;2.43;;;;;;;2.96;61.30;99510.53;5050643;28;20211;-72
2021/03/06 08:08:54;;;;;;;5.10;2.50;;;;;;;3.29;60.31;99509.75;5049695;28;20209;-81
2021/03/06 08:11:22;;;;;;;7.13;2.90;;;;;;;3.55;59.30;99514.66;5053687;28;20244;-78
2021/03/06 08:13:52;;;;;;;7.20;2.90;;;;;;;3.43;59.24;99513.00;5049695;28;20221;-77
2021/03/06 08:16:35;;;;;;;4.77;2.53;;;;;;;3.87;57.00;99515.59;5053972;28;20289;-76
2021/03/06 08:19:22;;;;;;;4.73;2.47;;;;;;;3.14;59.81;99522.31;5050123;28;20200;-78
2021/03/06 08:21:49;;;;;;;4.50;2.87;;;;;;;3.43;60.23;99517.44;5041155;28;20197;-76
2021/03/06 08:24:26;;;;;;;4.93;2.60;;;;;;;3.86;58.32;99521.84;5055061;28;20256;-75
2021/03/06 08:27:11;;;;;;;4.87;2.80;;;;;;;3.98;57.50;99523.53;5052412;28;20201;-75
2021/03/06 08:29:40;;;;;;;5.37;2.57;;;;;;;4.37;54.87;99530.03;5043859;28;20669;-80
2021/03/06 08:32:08;;;;;;;3.53;2.13;;;;;;;4.04;57.31;99530.09;5042813;28;20599;-77
2021/03/06 08:34:36;;;;;;;4.60;2.50;;;;;;;3.42;59.60;99513.13;5050913;28;20308;-77
2021/03/06 08:37:35;;;;;;;5.40;2.87;;;;;;;3.78;58.11;99513.72;5045987;28;20202;-77
2021/03/06 08:40:11;;;;;;;5.90;2.63;;;;;;;3.56;57.15;99526.91;5050347;28;20209;-76
2021/03/06 08:42:39;;;;;;;4.13;2.47;;;;;;;4.43;56.37;99526.88;5049156;28;20197;-76
2021/03/06 08:45:10;;;;;;;4.50;2.70;;;;;;;3.50;58.09;99522.09;5053592;28;20572;-76
2021/03/06 08:47:38;;;;;;;3.50;2.20;;;;;;;4.45;55.66;99531.06;5046522;28;20204;-78
2021/03/06 08:50:08;;;;;;;3.13;2.63;;;;;;;3.51;56.15;99539.63;5047789;28;20221;-75
2021/03/06 08:52:35;;;;;;;4.00;2.30;;;;;;;3.58;58.80;99525.00;5047725;28;20681;-79
2021/03/06 08:55:03;;;;;;;4.73;2.87;;;;;;;4.14;58.12;99520.47;5047850;28;20663;-75
2021/03/06 08:57:31;;;;;;;5.93;2.83;;;;;;;4.67;54.25;99533.63;5051712;28;20206;-81
2021/03/06 08:59:59;;;;;;;4.67;2.67;;;;;;;4.90;52.84;99540.50;5050894;28;20241;-73
2021/03/06 09:02:32;;;;;;;4.60;3.03;;;;;;;4.91;55.08;99526.28;5054669;28;20198;-76
2021/03/06 09:05:08;;;;;;;3.90;2.40;;;;;;;4.89;54.94;99536.19;5054989;28;20209;-80
2021/03/06 09:07:36;;;;;;;4.80;2.60;;;;;;;5.31;52.07;99534.34;5057715;28;20205;-73
2021/03/06 09:10:32;;;;;;;4.23;2.53;;;;;;;4.21;53.79;99526.94;5058851;28;20262;-87
2021/03/06 09:13:02;;;;;;;5.33;2.83;;;;;;;4.67;52.74;99530.97;5039006;28;20229;-76
2021/03/06 09:15:41;;;;;;;4.13;2.63;;;;;;;5.03;51.97;99527.06;5053781;28;20209;-79
2021/03/06 09:18:10;;;;;;;3.30;2.47;;;;;;;5.50;50.65;99537.09;5052968;28;20190;-74
2021/03/06 09:20:40;;;;;;;4.90;3.03;;;;;;;5.27;51.40;99536.41;5050437;28;20201;-77
2021/03/06 09:23:08;;;;;;;5.40;3.10;;;;;;;5.68;49.12;99538.16;5050300;28;20309;-83
2021/03/06 09:25:38;;;;;;;4.10;2.30;;;;;;;5.65;49.98;99528.69;5051074;28;20620;-77
2021/03/06 09:28:06;;;;;;;3.07;2.33;;;;;;;5.81;49.90;99528.19;5050814;28;20240;-78
2021/03/06 09:30:36;;;;;;;5.07;2.60;;;;;;;6.47;47.88;99530.16;5055153;28;20204;-75
2021/03/06 09:33:04;;;;;;;4.10;2.53;;;;;;;6.18;47.65;99527.47;5053505;28;20233;-72
2021/03/06 09:35:31;;;;;;;7.10;2.70;;;;;;;6.77;46.87;99519.41;5054097;28;20288;-75
2021/03/06 09:38:10;;;;;;;6.70;2.60;;;;;;;6.41;45.62;99526.25;5045900;28;20269;-75
2021/03/06 09:40:40;;;;;;;4.90;2.67;;;;;;;5.98;45.88;99528.38;5054462;28;20186;-80
2021/03/06 09:43:07;;;;;;;5.23;2.53;;;;;;;5.73;47.30;99520.06;5041924;28;20311;-75
2021/03/06 09:45:34;;;;;;;4.27;2.60;;;;;;;5.55;45.83;99533.09;5054372;28;20206;-78
2021/03/06 09:48:06;;;;;;;8.13;2.40;;;;;;;6.17;44.13;99527.59;5056448;28;20210;-73
2021/03/06 09:50:34;;;;;;;4.23;2.30;;;;;;;6.84;42.76;99526.69;5052401;28;20215;-73
2021/03/06 09:53:12;;;;;;;5.50;2.80;;;;;;;5.63;44.78;99535.06;5042997;28;20226;-76
2021/03/06 09:55:39;;;;;;;5.27;2.67;;;;;;;6.10;43.89;99529.13;5046943;28;20203;-77
2021/03/06 09:58:23;;;;;;;4.17;2.77;;;;;;;5.73;42.98;99535.97;5057081;28;20296;-75
2021/03/06 10:00:51;;;;;;;3.43;2.30;;;;;;;5.65;43.47;99539.25;5053028;28;20213;-76
2021/03/06 10:03:32;;;;;;;3.33;2.57;;;;;;;5.83;43.66;99542.16;5043841;28;20222;-75
2021/03/06 10:06:01;;;;;;;5.07;2.70;;;;;;;6.37;42.55;99535.47;5053598;28;20581;-80
2021/03/06 10:08:30;;;;;;;4.03;2.43;;;;;;;6.68;44.88;99525.56;5053297;28;20209;-77
2021/03/06 10:10:58;;;;;;;3.70;2.57;;;;;;;6.69;44.17;99521.91;5045221;28;20271;-75
2021/03/06 10:13:26;;;;;;;4.40;2.60;;;;;;;6.99;44.04;99519.09;5050229;28;20242;-79
2021/03/06 10:15:53;;;;;;;3.97;2.13;;;;;;;7.24;43.94;99521.16;5064596;28;20215;-79
2021/03/06 10:18:20;;;;;;;4.07;2.10;;;;;;;6.66;41.84;99528.34;5068894;28;20286;-79
2021/03/06 10:20:48;;;;;;;5.53;2.40;;;;;;;6.45;41.05;99529.47;5075228;28;20297;-80
2021/03/06 10:23:16;;;;;;;4.67;2.37;;;;;;;6.62;40.53;99529.63;5064077;28;20239;-77
2021/03/06 10:25:43;;;;;;;2.67;2.13;;;;;;;6.74;40.83;99539.09;5062425;28;20208;-76
2021/03/06 10:28:14;;;;;;;3.60;2.27;;;;;;;6.95;41.48;99528.34;5052618;28;20211;-81
2021/03/06 10:30:42;;;;;;;4.20;2.80;;;;;;;6.76;42.95;99515.09;5066307;28;20199;-78
2021/03/06 10:33:21;;;;;;;5.17;2.43;;;;;;;6.57;42.36;99520.38;5057682;28;20598;-76
2021/03/06 10:35:49;;;;;;;5.57;2.67;;;;;;;7.09;41.61;99526.09;5055824;28;20274;-76
2021/03/06 10:38:26;;;;;;;5.53;2.43;;;;;;;7.33;42.36;99513.19;5059945;28;20206;-75
2021/03/06 10:40:54;;;;;;;3.07;2.33;;;;;;;7.67;41.04;99516.97;5056331;28;20205;-74
2021/03/06 10:43:29;;;;;;;3.73;2.70;;;;;;;8.17;41.23;99517.44;5053594;28;20255;-81
2021/03/06 10:46:07;;;;;;;3.30;2.23;;;;;;;7.48;41.40;99522.38;5063054;28;20275;-79
2021/03/06 10:48:34;;;;;;;4.40;2.30;;;;;;;7.95;40.84;99515.16;5058701;28;20202;-77
2021/03/06 10:51:01;;;;;;;3.63;2.47;;;;;;;8.18;40.81;99519.94;5058623;28;20208;-78
2021/03/06 10:53:29;;;;;;;3.63;2.73;;;;;;;7.67;40.83;99527.59;5075293;28;20235;-75
2021/03/06 10:55:56;;;;;;;3.70;2.30;;;;;;;7.63;41.10;99517.41;5059929;28;20563;-74
2021/03/06 10:58:41;;;;;;;3.60;2.30;;;;;;;8.33;40.00;99518.47;5055896;28;20237;-78
2021/03/06 11:01:09;;;;;;;4.27;2.33;;;;;;;7.54;40.02;99524.44;5052927;28;20219;-75
2021/03/06 11:03:43;;;;;;;3.97;2.63;;;;;;;7.28;41.24;99518.09;5041589;28;20232;-79
2021/03/06 11:06:10;;;;;;;6.17;3.20;;;;;;;7.27;40.64;99513.78;5052924;28;20210;-77
2021/03/06 11:08:38;;;;;;;6.83;2.30;;;;;;;6.99;40.83;99517.31;5052826;28;20193;-88
2021/03/06 11:11:05;;;;;;;6.97;2.60;;;;;;;7.63;39.94;99517.41;5057294;28;20242;-74
2021/03/06 11:13:43;;;;;;;6.03;2.63;;;;;;;8.22;39.38;99518.69;5050643;28;20708;-71
2021/03/06 11:16:10;;;;;;;7.07;2.47;;;;;;;8.25;38.64;99517.53;5051425;28;20204;-69
2021/03/06 11:18:38;;;;;;;3.60;2.40;;;;;;;8.65;37.37;99529.47;5048608;28;20207;-73
2021/03/06 11:21:08;;;;;;;3.70;2.60;;;;;;;8.07;39.62;99514.81;5052238;28;20205;-73
2021/03/06 11:23:36;;;;;;;3.23;2.03;;;;;;;8.59;38.15;99515.91;5047092;28;20597;-73
2021/03/06 11:26:04;;;;;;;4.80;2.30;;;;;;;8.18;39.61;99505.81;5052801;28;20212;-75
2021/03/06 11:28:31;;;;;;;2.97;1.93;;;;;;;8.03;37.36;99513.47;5054241;28;20727;-74
2021/03/06 11:30:59;;;;;;;3.87;2.50;;;;;;;7.50;38.01;99515.09;5053107;28;20203;-72
2021/03/06 11:33:26;;;;;;;9.17;2.37;;;;;;;8.05;38.29;99500.84;5051935;28;20227;-73
2021/03/06 11:35:53;;;;;;;3.83;2.50;;;;;;;7.47;37.42;99509.22;5046387;28;20203;-75
2021/03/06 11:38:22;;;;;;;4.60;2.30;;;;;;;7.72;37.74;99503.25;5052708;28;20648;-75
2021/03/06 11:40:51;;;;;;;4.57;2.70;;;;;;;7.64;36.87;99516.44;5048021;28;20685;-70
2021/03/06 11:43:18;;;;;;;3.83;2.27;;;;;;;7.21;36.26;99509.00;5050171;28;20700;-77
2021/03/06 11:45:48;;;;;;;3.53;2.27;;;;;;;8.18;36.07;99505.81;5052438;28;20200;-80
2021/03/06 11:48:20;;;;;;;3.73;2.07;;;;;;;8.26;34.88;99519.22;5061220;28;20208;-81
2021/03/06 11:50:49;;;;;;;2.63;1.90;;;;;;;8.28;35.07;99509.28;5053356;28;20269;-84